McClellan-Palomar Airport (CRQ/KCRQ)

Map

Destinations

Information

Location
Carlsbad, CA
Local Time
15:29 / 3:29 pm
GMT Time
22:29 / 10:29 pm
Gates
Unassigned
No FAA reported delays
METAR KCRQ 272153Z AUTO 22011KT 10SM FEW022 18/12 A2997 RMK AO2 SLP148 T01780117
TAF KCRQ 271941Z 2720/2818 22007KT P6SM FEW018 SCT035 FM272100 26010G18KT P6SM SCT025 FM280300 VRB04KT P6SM SCT020 FM281200 10006KT P6SM SKC
  • No charts available